createdAt,value
2022-11-02T00:01:23.052Z,10.00
2022-11-02T00:03:53.049Z,9.80
2022-11-02T00:06:22.000Z,9.80
2022-11-02T00:08:54.740Z,9.90
2022-11-02T00:11:25.568Z,9.90
2022-11-02T00:13:54.514Z,9.90
2022-11-02T00:16:28.774Z,9.90
2022-11-02T00:19:04.133Z,9.80
2022-11-02T00:21:31.212Z,9.80
2022-11-02T00:23:58.929Z,9.80
2022-11-02T00:26:28.204Z,9.70
2022-11-02T00:28:58.421Z,9.50
2022-11-02T00:31:25.342Z,9.70
2022-11-02T00:33:52.433Z,9.60
2022-11-02T00:36:24.796Z,9.70
2022-11-02T00:38:54.818Z,9.70
2022-11-02T00:41:22.058Z,9.80
2022-11-02T00:43:55.951Z,9.80
2022-11-02T00:46:22.840Z,9.80
2022-11-02T00:48:49.962Z,9.90
2022-11-02T00:51:16.860Z,10.00
2022-11-02T00:53:43.748Z,9.80
2022-11-02T00:56:13.859Z,9.80
2022-11-02T00:58:41.222Z,9.70
2022-11-02T01:01:15.589Z,9.70
2022-11-02T01:03:42.699Z,9.80
2022-11-02T01:06:11.752Z,9.70
2022-11-02T01:08:39.088Z,9.60
2022-11-02T01:11:14.173Z,9.70
2022-11-02T01:13:47.485Z,9.70
2022-11-02T01:16:27.792Z,9.70
2022-11-02T01:18:56.527Z,9.80
2022-11-02T01:21:26.293Z,9.80
2022-11-02T01:23:53.348Z,9.80
2022-11-02T01:26:31.463Z,9.50
2022-11-02T01:28:58.478Z,9.50
2022-11-02T01:31:31.766Z,9.50
2022-11-02T01:33:58.676Z,9.50
2022-11-02T01:36:25.726Z,9.50
2022-11-02T01:38:54.665Z,9.50
2022-11-02T01:41:21.781Z,9.40
2022-11-02T01:43:53.734Z,9.50
2022-11-02T01:46:24.765Z,9.50
2022-11-02T01:49:01.404Z,9.50
2022-11-02T01:51:33.382Z,9.50
2022-11-02T01:54:06.474Z,9.50
2022-11-02T01:56:36.297Z,9.60
2022-11-02T01:59:13.368Z,9.50
2022-11-02T02:01:43.235Z,9.50
2022-11-02T02:04:15.304Z,9.60
2022-11-02T02:06:43.082Z,9.60
2022-11-02T02:09:12.350Z,9.70
2022-11-02T02:11:42.056Z,9.70
2022-11-02T02:14:12.993Z,9.70
2022-11-02T02:16:57.550Z,9.60
2022-11-02T02:19:38.629Z,9.60
2022-11-02T02:22:43.598Z,9.60
2022-11-02T02:25:37.017Z,9.60
2022-11-02T02:28:19.516Z,9.50
2022-11-02T02:30:51.650Z,9.50
2022-11-02T02:33:29.649Z,9.60
2022-11-02T02:36:01.997Z,9.60
2022-11-02T02:38:34.431Z,9.60
2022-11-02T02:41:13.334Z,9.70
2022-11-02T02:43:49.994Z,9.60
2022-11-02T02:46:22.916Z,9.70
2022-11-02T02:48:56.238Z,9.60
2022-11-02T02:51:27.860Z,9.70
2022-11-02T02:54:02.120Z,9.90
2022-11-02T02:56:35.437Z,10.00
2022-11-02T02:59:08.912Z,10.00
2022-11-02T03:01:40.735Z,10.00
2022-11-02T03:04:11.975Z,9.90
2022-11-02T03:06:41.142Z,9.90
2022-11-02T03:09:20.739Z,9.90
2022-11-02T03:12:00.698Z,9.80
2022-11-02T03:14:38.762Z,9.80
2022-11-02T03:17:17.968Z,9.80
2022-11-02T03:19:57.789Z,9.90
2022-11-02T03:22:34.026Z,10.00
2022-11-02T03:25:12.683Z,9.80
2022-11-02T03:27:57.627Z,9.80
2022-11-02T03:30:29.971Z,9.80
2022-11-02T03:33:05.025Z,9.80
2022-11-02T03:35:41.417Z,9.80
2022-11-02T03:38:13.394Z,9.90
2022-11-02T03:40:48.239Z,10.00
2022-11-02T03:43:21.277Z,9.90
2022-11-02T03:45:55.361Z,10.00
2022-11-02T03:48:28.501Z,10.10
2022-11-02T03:50:58.504Z,10.10
2022-11-02T03:53:32.759Z,10.00
2022-11-02T03:56:08.340Z,9.90
2022-11-02T03:58:36.202Z,10.10
2022-11-02T04:01:08.547Z,10.20
2022-11-02T04:03:42.961Z,10.10
2022-11-02T04:06:13.233Z,10.00
2022-11-02T04:08:42.634Z,9.90
2022-11-02T04:11:28.606Z,9.90
2022-11-02T04:14:14.421Z,9.90
2022-11-02T04:16:43.561Z,9.90
2022-11-02T04:19:29.425Z,9.90
2022-11-02T04:22:15.968Z,10.00
2022-11-02T04:25:11.415Z,10.10
2022-11-02T04:27:41.811Z,10.10
2022-11-02T04:30:12.705Z,10.10
2022-11-02T04:33:00.841Z,10.00
2022-11-02T04:35:28.566Z,9.90
2022-11-02T04:38:17.530Z,9.80
2022-11-02T04:40:47.438Z,9.80
2022-11-02T04:43:14.638Z,9.70
2022-11-02T04:45:41.825Z,9.70
2022-11-02T04:48:10.626Z,9.70
2022-11-02T04:50:37.946Z,9.70
2022-11-02T04:53:08.322Z,9.70
2022-11-02T04:55:35.343Z,9.60
2022-11-02T04:58:03.077Z,9.60
2022-11-02T05:00:30.408Z,9.70
2022-11-02T05:02:57.904Z,9.70
2022-11-02T05:05:26.233Z,9.70
2022-11-02T05:07:53.698Z,9.60
2022-11-02T05:10:20.645Z,9.60
2022-11-02T05:12:47.618Z,9.60
2022-11-02T05:15:14.807Z,9.50
2022-11-02T05:17:41.694Z,9.50
2022-11-02T05:20:09.412Z,9.50
2022-11-02T05:22:42.141Z,9.50
2022-11-02T05:25:21.458Z,9.30
2022-11-02T05:27:48.329Z,9.40
2022-11-02T05:30:18.343Z,9.30
2022-11-02T05:32:45.310Z,9.40
2022-11-02T05:35:12.361Z,9.30
2022-11-02T05:37:55.426Z,9.30
2022-11-02T05:40:22.460Z,9.30
2022-11-02T05:42:52.131Z,9.30
2022-11-02T05:45:22.127Z,9.10
2022-11-02T05:47:51.598Z,9.10
2022-11-02T05:50:18.748Z,9.00
2022-11-02T05:52:47.160Z,8.80
2022-11-02T05:55:14.593Z,8.90
2022-11-02T05:57:44.255Z,8.90
2022-11-02T06:00:12.243Z,8.90
2022-11-02T06:02:39.161Z,9.00
2022-11-02T06:05:07.337Z,9.00
2022-11-02T06:07:34.561Z,8.90
2022-11-02T06:10:08.148Z,8.90
2022-11-02T06:12:35.108Z,8.80
2022-11-02T06:15:02.242Z,8.70
2022-11-02T06:17:29.182Z,8.90
2022-11-02T06:19:59.235Z,8.90
2022-11-02T06:22:26.163Z,9.00
2022-11-02T06:24:53.069Z,8.90
2022-11-02T06:27:24.291Z,8.90
2022-11-02T06:29:52.616Z,9.00
2022-11-02T06:32:19.561Z,8.90
2022-11-02T06:34:46.613Z,8.90
2022-11-02T06:37:13.652Z,8.90
2022-11-02T06:39:41.047Z,8.80
2022-11-02T06:42:08.273Z,8.90
2022-11-02T06:44:36.570Z,9.00
2022-11-02T06:47:03.743Z,9.10
2022-11-02T06:49:30.782Z,9.20
2022-11-02T06:51:57.682Z,9.20
2022-11-02T06:54:27.733Z,9.10
2022-11-02T06:56:54.654Z,9.20
2022-11-02T06:59:21.629Z,9.20
2022-11-02T07:01:53.987Z,9.30
2022-11-02T07:04:21.954Z,9.40
2022-11-02T07:06:49.022Z,9.40
2022-11-02T07:09:18.943Z,9.40
2022-11-02T07:11:45.916Z,9.30
2022-11-02T07:14:12.898Z,9.40
2022-11-02T07:16:39.810Z,9.40
2022-11-02T07:19:11.101Z,9.60
2022-11-02T07:21:50.405Z,9.70
2022-11-02T07:24:17.381Z,9.70
2022-11-02T07:26:50.949Z,9.70
2022-11-02T07:29:17.994Z,9.70
2022-11-02T07:31:48.424Z,9.70
2022-11-02T07:34:19.356Z,9.80
2022-11-02T07:36:52.400Z,9.80
2022-11-02T07:39:19.322Z,9.80
2022-11-02T07:41:51.591Z,9.80
2022-11-02T07:44:18.850Z,9.90
2022-11-02T07:46:45.787Z,10.00
2022-11-02T07:49:21.286Z,10.10
2022-11-02T07:51:57.953Z,10.20
2022-11-02T07:54:27.755Z,10.30
2022-11-02T07:56:57.615Z,10.30
2022-11-02T07:59:27.637Z,10.40
2022-11-02T08:02:02.000Z,10.50
2022-11-02T08:04:33.757Z,10.50
2022-11-02T08:07:00.719Z,10.60
2022-11-02T08:09:27.733Z,10.70
2022-11-02T08:11:59.855Z,10.70
2022-11-02T08:14:26.884Z,10.80
2022-11-02T08:16:56.226Z,10.90
2022-11-02T08:19:23.362Z,11.00
2022-11-02T08:21:52.685Z,11.10
2022-11-02T08:24:19.695Z,11.30
2022-11-02T08:26:55.458Z,11.30
2022-11-02T08:29:22.663Z,11.40
2022-11-02T08:31:49.560Z,11.60
2022-11-02T08:34:16.467Z,11.60
2022-11-02T08:36:46.249Z,11.70
2022-11-02T08:39:18.669Z,11.80
2022-11-02T08:41:46.598Z,11.90
2022-11-02T08:44:16.455Z,12.10
2022-11-02T08:46:43.424Z,12.10
2022-11-02T08:49:12.745Z,12.20
2022-11-02T08:51:42.562Z,12.30
2022-11-02T08:54:16.690Z,12.40
2022-11-02T08:56:43.605Z,12.40
2022-11-02T08:59:13.413Z,12.40
2022-11-02T09:01:40.437Z,12.40
2022-11-02T09:04:13.165Z,12.50
2022-11-02T09:06:42.489Z,12.50
2022-11-02T09:09:09.784Z,12.50
2022-11-02T09:11:38.072Z,12.60
2022-11-02T09:14:14.299Z,12.70
2022-11-02T09:16:41.877Z,12.80
2022-11-02T09:19:09.056Z,12.90
2022-11-02T09:21:37.219Z,13.00
2022-11-02T09:24:06.726Z,13.10
2022-11-02T09:26:33.680Z,13.10
2022-11-02T09:29:04.716Z,13.10
2022-11-02T09:31:31.730Z,13.20
2022-11-02T09:33:58.751Z,13.20
2022-11-02T09:36:25.699Z,13.30
2022-11-02T09:38:52.587Z,13.30
2022-11-02T09:41:35.292Z,13.40
2022-11-02T09:44:11.999Z,13.50
2022-11-02T09:46:45.434Z,13.60
2022-11-02T09:49:18.570Z,13.70
2022-11-02T09:51:49.670Z,13.70
2022-11-02T09:54:19.931Z,13.90
2022-11-02T09:56:49.939Z,14.10
2022-11-02T09:59:21.035Z,14.20
2022-11-02T10:02:01.002Z,14.40
2022-11-02T10:04:58.765Z,14.60
2022-11-02T10:07:55.399Z,14.80
2022-11-02T10:10:35.024Z,15.00
2022-11-02T10:13:24.726Z,15.00
2022-11-02T10:16:03.704Z,15.10
2022-11-02T10:18:36.535Z,15.10
2022-11-02T10:21:09.595Z,15.00
2022-11-02T10:23:48.982Z,14.90
2022-11-02T10:26:28.531Z,14.90
2022-11-02T10:29:11.509Z,14.80
2022-11-02T10:31:46.202Z,14.70
2022-11-02T10:34:28.826Z,14.60
2022-11-02T10:37:39.658Z,14.50
2022-11-02T10:40:25.902Z,14.60
2022-11-02T10:43:08.477Z,14.50
2022-11-02T10:46:24.137Z,14.40
2022-11-02T10:49:01.955Z,14.30
2022-11-02T10:51:34.694Z,14.30
2022-11-02T10:54:01.676Z,14.30
2022-11-02T10:56:31.852Z,14.50
2022-11-02T10:59:14.327Z,14.60
2022-11-02T11:02:06.941Z,14.70
2022-11-02T11:04:35.933Z,14.80
2022-11-02T11:07:13.555Z,14.90
2022-11-02T11:09:49.564Z,15.00
2022-11-02T11:12:31.474Z,15.00
2022-11-02T11:20:43.133Z,15.10
2022-11-02T11:23:22.557Z,15.30
2022-11-02T11:26:01.675Z,15.30
2022-11-02T11:28:34.557Z,15.30
2022-11-02T11:31:13.586Z,15.30
2022-11-02T11:33:54.513Z,15.30
2022-11-02T11:36:30.295Z,15.30
2022-11-02T11:39:00.533Z,15.30
2022-11-02T11:41:28.658Z,15.30
2022-11-02T11:43:58.974Z,15.30
2022-11-02T11:46:39.712Z,15.30
2022-11-02T11:49:35.897Z,15.40
2022-11-02T11:52:24.490Z,15.40
2022-11-02T11:54:57.238Z,15.50
2022-11-02T11:57:29.379Z,15.50
2022-11-02T12:00:27.390Z,15.50
2022-11-02T12:03:12.123Z,15.50
2022-11-02T12:06:11.833Z,15.50
2022-11-02T12:08:53.182Z,15.50
2022-11-02T12:11:42.817Z,15.60
2022-11-02T12:14:34.958Z,15.60
2022-11-02T12:17:36.851Z,15.60
2022-11-02T12:20:45.348Z,15.70
2022-11-02T12:23:52.252Z,15.70
2022-11-02T12:26:41.565Z,15.70
2022-11-02T12:29:55.644Z,15.80
2022-11-02T12:32:51.511Z,15.90
2022-11-02T12:35:31.482Z,15.90
2022-11-02T12:38:25.877Z,15.90
2022-11-02T12:41:03.546Z,15.80
2022-11-02T12:43:43.087Z,15.90
2022-11-02T12:46:38.404Z,15.80
2022-11-02T12:49:36.735Z,15.80
2022-11-02T12:52:17.069Z,15.70
2022-11-02T12:54:48.680Z,15.70
2022-11-02T12:57:22.447Z,15.70
2022-11-02T12:59:54.753Z,15.70
2022-11-02T13:02:26.588Z,15.70
2022-11-02T13:05:00.430Z,15.80
2022-11-02T13:07:34.771Z,15.80
2022-11-02T13:10:07.029Z,15.80
2022-11-02T13:12:37.831Z,15.80
2022-11-02T13:15:16.073Z,15.80
2022-11-02T13:17:47.903Z,15.80
2022-11-02T13:20:18.694Z,15.90
2022-11-02T13:22:56.412Z,15.80
2022-11-02T13:25:32.948Z,15.80
2022-11-02T13:28:07.757Z,15.80
2022-11-02T13:30:35.989Z,15.80
2022-11-02T13:33:10.169Z,15.70
2022-11-02T13:35:43.513Z,15.70
2022-11-02T13:38:29.128Z,15.70
2022-11-02T13:41:20.217Z,15.70
2022-11-02T13:44:48.068Z,15.70
2022-11-02T13:47:42.651Z,15.70
2022-11-02T13:50:17.688Z,15.70
2022-11-02T13:52:56.730Z,15.60
2022-11-02T13:55:41.302Z,15.60
2022-11-02T13:58:28.989Z,15.60
2022-11-02T14:01:01.360Z,15.60
2022-11-02T14:03:32.928Z,15.60
2022-11-02T14:06:09.517Z,15.60
2022-11-02T14:08:41.898Z,15.60
2022-11-02T14:11:37.041Z,15.60
2022-11-02T14:14:25.924Z,15.60
2022-11-02T14:17:12.948Z,15.60
2022-11-02T14:20:04.928Z,15.60
2022-11-02T14:22:32.963Z,15.50
2022-11-02T14:25:18.085Z,15.50
2022-11-02T14:30:46.385Z,15.50
2022-11-02T14:33:55.562Z,15.50
2022-11-02T14:36:45.677Z,15.60
2022-11-02T14:39:24.100Z,15.50
2022-11-02T14:42:26.151Z,15.50
2022-11-02T14:45:30.172Z,15.40
2022-11-02T14:48:04.535Z,15.40
2022-11-02T14:50:34.056Z,15.40
2022-11-02T14:53:07.272Z,15.40
2022-11-02T14:55:39.504Z,15.30
2022-11-02T14:58:18.736Z,15.30
2022-11-02T15:00:58.039Z,15.30
2022-11-02T15:03:34.307Z,15.20
2022-11-02T15:06:06.343Z,15.20
2022-11-02T15:08:55.053Z,15.20
2022-11-02T15:11:52.685Z,15.20
2022-11-02T15:14:59.841Z,15.10
2022-11-02T15:18:00.291Z,15.10
2022-11-02T15:20:30.992Z,15.00
2022-11-02T15:25:57.820Z,15.00
2022-11-02T15:28:27.727Z,15.00
2022-11-02T15:31:03.836Z,14.90
2022-11-02T15:33:39.082Z,14.90
2022-11-02T15:36:14.915Z,14.90
2022-11-02T15:38:52.493Z,14.90
2022-11-02T15:41:28.562Z,14.80
2022-11-02T15:44:18.783Z,14.80
2022-11-02T15:47:08.393Z,14.80
2022-11-02T15:50:18.843Z,14.70
2022-11-02T15:53:23.691Z,14.70
2022-11-02T15:56:14.836Z,14.60
2022-11-02T15:59:10.759Z,14.60
2022-11-02T16:01:39.969Z,14.50
2022-11-02T16:04:11.660Z,14.50
2022-11-02T16:06:44.166Z,14.40
2022-11-02T16:09:32.973Z,14.30
2022-11-02T16:12:16.469Z,14.20
2022-11-02T16:14:52.238Z,14.20
2022-11-02T16:17:21.500Z,14.10
2022-11-02T16:20:15.810Z,14.10
2022-11-02T16:22:50.106Z,14.10
2022-11-02T16:25:22.034Z,14.10
2022-11-02T16:27:50.728Z,14.00
2022-11-02T16:30:20.615Z,13.90
2022-11-02T16:32:52.407Z,13.80
2022-11-02T16:35:23.571Z,13.60
2022-11-02T16:37:50.950Z,13.50
2022-11-02T16:40:20.048Z,13.20
2022-11-02T16:42:48.529Z,13.30
2022-11-02T16:45:40.293Z,13.40
2022-11-02T16:48:28.070Z,13.10
2022-11-02T16:51:14.658Z,13.00
2022-11-02T16:53:42.364Z,12.90
2022-11-02T16:56:27.420Z,12.90
2022-11-02T16:59:00.224Z,12.80
2022-11-02T17:01:36.545Z,12.70
2022-11-02T17:04:20.326Z,12.80
2022-11-02T17:06:53.891Z,12.80
2022-11-02T17:09:27.057Z,12.70
2022-11-02T17:12:00.232Z,12.50
2022-11-02T17:14:28.511Z,12.60
2022-11-02T17:17:06.186Z,12.60
2022-11-02T17:19:47.189Z,12.50
2022-11-02T17:22:27.803Z,12.50
2022-11-02T17:25:13.162Z,12.40
2022-11-02T17:27:43.897Z,12.30
2022-11-02T17:30:43.248Z,12.20
2022-11-02T17:33:27.985Z,12.10
2022-11-02T17:35:56.979Z,12.20
2022-11-02T17:38:28.445Z,11.80
2022-11-02T17:41:24.636Z,11.70
2022-11-02T17:43:51.777Z,11.70
2022-11-02T17:46:22.412Z,11.60
2022-11-02T17:48:58.568Z,11.80
2022-11-02T17:51:28.297Z,11.80
2022-11-02T17:53:58.910Z,11.80
2022-11-02T17:56:25.915Z,11.80
2022-11-02T17:58:52.907Z,11.70
2022-11-02T18:01:29.315Z,11.80
2022-11-02T18:04:01.121Z,11.80
2022-11-02T18:06:29.731Z,12.00
2022-11-02T18:09:14.445Z,12.10
2022-11-02T18:11:47.272Z,12.10
2022-11-02T18:14:16.497Z,11.90
2022-11-02T18:16:44.807Z,11.90
2022-11-02T18:19:21.841Z,11.70
2022-11-02T18:21:48.926Z,11.50
2022-11-02T18:24:17.212Z,11.40
2022-11-02T18:26:47.325Z,11.20
2022-11-02T18:29:14.597Z,11.20
2022-11-02T18:31:44.223Z,11.40
2022-11-02T18:34:18.653Z,11.30
2022-11-02T18:36:53.099Z,11.30
2022-11-02T18:39:25.535Z,11.30
2022-11-02T18:41:53.348Z,11.30
2022-11-02T18:44:20.262Z,11.30
2022-11-02T18:46:47.989Z,11.10
2022-11-02T18:49:21.397Z,11.10
2022-11-02T18:51:48.651Z,11.00
2022-11-02T18:54:18.511Z,11.10
2022-11-02T18:56:45.722Z,11.30
2022-11-02T18:59:12.733Z,11.20
2022-11-02T19:01:40.162Z,11.10
2022-11-02T19:04:14.457Z,11.10
2022-11-02T19:07:04.978Z,11.00
2022-11-02T19:09:33.525Z,11.00
2022-11-02T19:12:09.478Z,10.60
2022-11-02T19:14:38.982Z,10.50
2022-11-02T19:17:09.686Z,10.40
2022-11-02T19:19:37.085Z,10.40
2022-11-02T19:22:05.480Z,10.40
2022-11-02T19:24:34.409Z,10.40
2022-11-02T19:27:01.838Z,10.50
2022-11-02T19:29:28.835Z,10.40
2022-11-02T19:32:05.218Z,10.40
2022-11-02T19:34:38.471Z,10.40
2022-11-02T19:37:13.255Z,10.40
2022-11-02T19:39:43.292Z,10.30
2022-11-02T19:42:16.358Z,10.40
2022-11-02T19:44:46.048Z,10.30
2022-11-02T19:47:13.798Z,10.10
2022-11-02T19:49:43.914Z,10.10
2022-11-02T19:52:12.229Z,10.10
2022-11-02T19:54:39.198Z,10.10
2022-11-02T19:57:06.292Z,10.20
2022-11-02T19:59:35.425Z,10.10
2022-11-02T20:02:05.367Z,10.10
2022-11-02T20:04:36.809Z,9.90
2022-11-02T20:07:12.088Z,9.90
2022-11-02T20:09:45.332Z,10.00
2022-11-02T20:12:12.285Z,10.00
2022-11-02T20:14:39.469Z,9.70
2022-11-02T20:19:57.783Z,9.90
2022-11-02T20:22:28.513Z,9.90
2022-11-02T20:24:55.501Z,9.70
2022-11-02T20:27:22.910Z,9.80
2022-11-02T20:29:55.851Z,9.90
2022-11-02T20:32:23.089Z,9.90
2022-11-02T20:34:50.141Z,9.80
2022-11-02T20:37:20.256Z,9.60
2022-11-02T20:39:56.944Z,9.70
2022-11-02T20:42:25.754Z,9.50
2022-11-02T20:44:56.118Z,9.60
2022-11-02T20:47:23.531Z,9.60
2022-11-02T20:49:52.208Z,9.70
2022-11-02T20:52:21.906Z,9.70
2022-11-02T20:54:49.030Z,9.70
2022-11-02T20:57:17.626Z,9.70
2022-11-02T20:59:50.900Z,9.50
2022-11-02T21:02:18.019Z,9.50
2022-11-02T21:04:45.390Z,9.50
2022-11-02T21:07:12.363Z,9.60
2022-11-02T21:09:39.324Z,9.60
2022-11-02T21:12:27.864Z,9.60
2022-11-02T21:14:56.397Z,9.50
2022-11-02T21:17:23.431Z,9.50
2022-11-02T21:19:57.897Z,9.30
2022-11-02T21:22:35.046Z,9.40
2022-11-02T21:25:02.226Z,9.40
2022-11-02T21:27:32.163Z,9.30
2022-11-02T21:30:00.626Z,9.40
2022-11-02T21:32:30.490Z,9.30
2022-11-02T21:35:00.393Z,9.30
2022-11-02T21:37:27.329Z,9.20
2022-11-02T21:39:57.293Z,9.20
2022-11-02T21:42:24.372Z,9.20
2022-11-02T21:44:54.142Z,9.20
2022-11-02T21:47:22.460Z,9.30
2022-11-02T21:49:49.579Z,9.40
2022-11-02T21:52:16.723Z,9.40
2022-11-02T21:54:46.901Z,9.50
2022-11-02T21:57:13.797Z,9.70
2022-11-02T21:59:42.463Z,9.70
2022-11-02T22:02:12.832Z,9.60
2022-11-02T22:04:41.469Z,9.50
2022-11-02T22:07:11.726Z,9.60
2022-11-02T22:09:41.878Z,9.60
2022-11-02T22:12:27.620Z,9.60
2022-11-02T22:14:54.580Z,9.50
2022-11-02T22:17:48.043Z,9.50
2022-11-02T22:20:12.584Z,9.60
2022-11-02T22:22:54.141Z,9.60
2022-11-02T22:25:21.092Z,9.50
2022-11-02T22:27:51.911Z,9.60
2022-11-02T22:30:29.386Z,9.70
2022-11-02T22:32:56.458Z,9.60
2022-11-02T22:35:25.020Z,9.70
2022-11-02T22:38:14.382Z,9.60
2022-11-02T22:40:41.283Z,9.50
2022-11-02T22:43:13.957Z,9.50
2022-11-02T22:45:41.179Z,9.60
2022-11-02T22:48:08.298Z,9.50
2022-11-02T22:50:37.083Z,9.50
2022-11-02T22:53:04.680Z,9.50
2022-11-02T22:55:34.930Z,9.40
2022-11-02T22:58:04.885Z,9.40
2022-11-02T23:00:34.750Z,9.40
2022-11-02T23:03:01.739Z,9.50
2022-11-02T23:05:30.432Z,9.60
2022-11-02T23:07:58.922Z,9.60
2022-11-02T23:10:44.644Z,9.70
2022-11-02T23:13:11.589Z,9.70
2022-11-02T23:15:41.145Z,9.70
2022-11-02T23:18:08.013Z,9.70
2022-11-02T23:20:40.858Z,9.70
2022-11-02T23:23:37.061Z,9.70
2022-11-02T23:26:04.480Z,9.70
2022-11-02T23:29:02.127Z,9.60
2022-11-02T23:31:51.309Z,9.60
2022-11-02T23:34:24.321Z,9.50
2022-11-02T23:36:53.674Z,9.50
2022-11-02T23:39:40.940Z,9.40
2022-11-02T23:42:07.911Z,9.40
2022-11-02T23:44:34.954Z,9.30
2022-11-02T23:47:01.878Z,9.40
2022-11-02T23:49:34.039Z,9.40
2022-11-02T23:52:19.622Z,9.30
2022-11-02T23:55:09.293Z,9.40
2022-11-02T23:57:36.516Z,9.40
